Thompson, Michigan
Current Conditions -  °F | °C
As of 12:54 AM on Sunday 26 Oct 2014 (Local Time) from KISQ Reporting Station
Clear Clear  
Wind Chill: 42°   Ceiling: Unl
Heat Index: 48°   Visibility: 10mi
Dew Point: 32°   Wind: 15mph
Humidity: 53%   Direction: 320°NW
Pressure: 29.8"   Gusts: 22mph
Location:  46.1571°N, 86.3397°W
Report Text: KISQ 260454Z AUTO 32013G19KT 280V340 10SM CLR 09/00 A2980 RMK AO2 T00901001
Loading
Personal Weather Stations






























Interactive Weather Map
Tropical Storm Tracking
New forecast layout! Learn more

10-Day Weather Forecast

Advertisements
Track Severe Weather on mobile